sensor_id;sensor_type;location;lat;lon;timestamp;P1;durP1;ratioP1;P2;durP2;ratioP2
25913;SDS011;13718;50.922;5.346;2022-07-26T00:01:59;9.25;;;1.20;;
25913;SDS011;13718;50.922;5.346;2022-07-26T00:04:25;5.05;;;1.08;;
25913;SDS011;13718;50.922;5.346;2022-07-26T00:06:51;5.80;;;1.20;;
25913;SDS011;13718;50.922;5.346;2022-07-26T00:09:17;5.80;;;1.40;;
25913;SDS011;13718;50.922;5.346;2022-07-26T00:11:42;10.55;;;1.50;;
25913;SDS011;13718;50.922;5.346;2022-07-26T00:14:08;7.57;;;1.30;;
25913;SDS011;13718;50.922;5.346;2022-07-26T00:16:34;6.35;;;1.30;;
25913;SDS011;13718;50.922;5.346;2022-07-26T00:19:00;5.10;;;1.08;;
25913;SDS011;13718;50.922;5.346;2022-07-26T00:21:26;8.20;;;1.60;;
25913;SDS011;13718;50.922;5.346;2022-07-26T00:23:51;13.35;;;1.77;;
25913;SDS011;13718;50.922;5.346;2022-07-26T00:26:20;4.97;;;1.38;;
25913;SDS011;13718;50.922;5.346;2022-07-26T00:28:46;8.02;;;1.50;;
25913;SDS011;13718;50.922;5.346;2022-07-26T00:31:11;8.98;;;1.30;;
25913;SDS011;13718;50.922;5.346;2022-07-26T00:33:37;10.68;;;1.40;;
25913;SDS011;13718;50.922;5.346;2022-07-26T00:36:04;6.18;;;1.27;;
25913;SDS011;13718;50.922;5.346;2022-07-26T00:38:33;10.80;;;1.33;;
25913;SDS011;13718;50.922;5.346;2022-07-26T00:40:59;6.10;;;1.30;;
25913;SDS011;13718;50.922;5.346;2022-07-26T00:43:28;8.68;;;1.40;;
25913;SDS011;13718;50.922;5.346;2022-07-26T00:45:54;7.70;;;1.77;;
25913;SDS011;13718;50.922;5.346;2022-07-26T00:48:19;10.10;;;1.50;;
25913;SDS011;13718;50.922;5.346;2022-07-26T00:50:45;8.85;;;1.42;;
25913;SDS011;13718;50.922;5.346;2022-07-26T00:53:10;5.00;;;1.27;;
25913;SDS011;13718;50.922;5.346;2022-07-26T00:55:36;5.45;;;1.23;;
25913;SDS011;13718;50.922;5.346;2022-07-26T00:58:02;12.32;;;2.03;;
25913;SDS011;13718;50.922;5.346;2022-07-26T01:00:31;4.07;;;1.15;;
25913;SDS011;13718;50.922;5.346;2022-07-26T01:02:57;10.05;;;1.60;;
25913;SDS011;13718;50.922;5.346;2022-07-26T01:05:24;11.45;;;1.80;;
25913;SDS011;13718;50.922;5.346;2022-07-26T01:07:50;9.88;;;1.50;;
25913;SDS011;13718;50.922;5.346;2022-07-26T01:10:18;9.15;;;1.77;;
25913;SDS011;13718;50.922;5.346;2022-07-26T01:12:47;7.80;;;1.15;;
25913;SDS011;13718;50.922;5.346;2022-07-26T01:15:13;9.00;;;1.67;;
25913;SDS011;13718;50.922;5.346;2022-07-26T01:17:40;9.98;;;1.77;;
25913;SDS011;13718;50.922;5.346;2022-07-26T01:20:06;9.63;;;1.55;;
25913;SDS011;13718;50.922;5.346;2022-07-26T01:22:33;8.05;;;1.90;;
25913;SDS011;13718;50.922;5.346;2022-07-26T01:24:59;11.15;;;1.92;;
25913;SDS011;13718;50.922;5.346;2022-07-26T01:27:24;6.00;;;1.63;;
25913;SDS011;13718;50.922;5.346;2022-07-26T01:29:51;6.55;;;2.47;;
25913;SDS011;13718;50.922;5.346;2022-07-26T01:32:17;6.65;;;1.50;;
25913;SDS011;13718;50.922;5.346;2022-07-26T01:34:43;12.98;;;2.00;;
25913;SDS011;13718;50.922;5.346;2022-07-26T01:37:09;8.07;;;1.52;;
25913;SDS011;13718;50.922;5.346;2022-07-26T01:39:35;11.13;;;1.88;;
25913;SDS011;13718;50.922;5.346;2022-07-26T01:42:01;13.18;;;2.05;;
25913;SDS011;13718;50.922;5.346;2022-07-26T01:44:27;6.47;;;1.63;;
25913;SDS011;13718;50.922;5.346;2022-07-26T01:46:53;6.25;;;1.60;;
25913;SDS011;13718;50.922;5.346;2022-07-26T01:49:19;7.55;;;1.90;;
25913;SDS011;13718;50.922;5.346;2022-07-26T02:04:53;5.93;;;1.70;;
25913;SDS011;13718;50.922;5.346;2022-07-26T02:07:29;14.68;;;2.38;;
25913;SDS011;13718;50.922;5.346;2022-07-26T02:09:56;12.75;;;1.92;;
25913;SDS011;13718;50.922;5.346;2022-07-26T02:12:22;6.47;;;1.83;;
25913;SDS011;13718;50.922;5.346;2022-07-26T02:14:48;10.82;;;2.00;;
25913;SDS011;13718;50.922;5.346;2022-07-26T02:17:15;5.35;;;1.95;;
25913;SDS011;13718;50.922;5.346;2022-07-26T02:19:41;11.68;;;1.95;;
25913;SDS011;13718;50.922;5.346;2022-07-26T02:22:06;6.20;;;1.80;;
25913;SDS011;13718;50.922;5.346;2022-07-26T02:24:32;12.13;;;1.98;;
25913;SDS011;13718;50.922;5.346;2022-07-26T02:26:59;9.32;;;1.77;;
25913;SDS011;13718;50.922;5.346;2022-07-26T02:29:26;9.00;;;1.73;;
25913;SDS011;13718;50.922;5.346;2022-07-26T02:31:52;9.88;;;2.05;;
25913;SDS011;13718;50.922;5.346;2022-07-26T02:34:18;12.65;;;2.00;;
25913;SDS011;13718;50.922;5.346;2022-07-26T02:36:44;8.70;;;1.67;;
25913;SDS011;13718;50.922;5.346;2022-07-26T02:39:11;10.55;;;1.90;;
25913;SDS011;13718;50.922;5.346;2022-07-26T02:41:37;10.95;;;2.00;;
25913;SDS011;13718;50.922;5.346;2022-07-26T02:44:03;13.98;;;2.45;;
25913;SDS011;13718;50.922;5.346;2022-07-26T02:46:32;6.47;;;1.90;;
25913;SDS011;13718;50.922;5.346;2022-07-26T02:48:58;11.18;;;1.80;;
25913;SDS011;13718;50.922;5.346;2022-07-26T02:51:24;7.20;;;1.92;;
25913;SDS011;13718;50.922;5.346;2022-07-26T02:53:50;11.57;;;2.17;;
25913;SDS011;13718;50.922;5.346;2022-07-26T02:56:17;18.25;;;2.60;;
25913;SDS011;13718;50.922;5.346;2022-07-26T02:58:44;9.75;;;2.10;;
25913;SDS011;13718;50.922;5.346;2022-07-26T03:01:09;11.88;;;2.50;;
25913;SDS011;13718;50.922;5.346;2022-07-26T03:03:35;10.18;;;1.92;;
25913;SDS011;13718;50.922;5.346;2022-07-26T03:06:01;8.38;;;1.95;;
25913;SDS011;13718;50.922;5.346;2022-07-26T03:08:26;6.95;;;2.10;;
25913;SDS011;13718;50.922;5.346;2022-07-26T03:10:52;10.82;;;1.83;;
25913;SDS011;13718;50.922;5.346;2022-07-26T03:13:18;10.70;;;2.47;;
25913;SDS011;13718;50.922;5.346;2022-07-26T03:15:43;15.27;;;2.22;;
25913;SDS011;13718;50.922;5.346;2022-07-26T03:18:09;11.63;;;2.22;;
25913;SDS011;13718;50.922;5.346;2022-07-26T03:20:35;13.25;;;1.98;;
25913;SDS011;13718;50.922;5.346;2022-07-26T03:23:01;9.40;;;1.98;;
25913;SDS011;13718;50.922;5.346;2022-07-26T03:25:26;11.88;;;2.28;;
25913;SDS011;13718;50.922;5.346;2022-07-26T03:27:55;13.98;;;2.08;;
25913;SDS011;13718;50.922;5.346;2022-07-26T03:30:26;7.40;;;1.95;;
25913;SDS011;13718;50.922;5.346;2022-07-26T03:32:52;6.28;;;2.00;;
25913;SDS011;13718;50.922;5.346;2022-07-26T03:35:18;11.35;;;2.20;;
25913;SDS011;13718;50.922;5.346;2022-07-26T03:37:43;10.85;;;2.17;;
25913;SDS011;13718;50.922;5.346;2022-07-26T03:40:09;14.75;;;3.38;;
25913;SDS011;13718;50.922;5.346;2022-07-26T03:42:35;10.95;;;2.28;;
25913;SDS011;13718;50.922;5.346;2022-07-26T03:45:01;14.07;;;2.42;;
25913;SDS011;13718;50.922;5.346;2022-07-26T03:47:27;9.98;;;2.13;;
25913;SDS011;13718;50.922;5.346;2022-07-26T03:49:53;11.60;;;2.50;;
25913;SDS011;13718;50.922;5.346;2022-07-26T03:52:18;13.48;;;2.50;;
25913;SDS011;13718;50.922;5.346;2022-07-26T03:54:44;9.82;;;2.25;;
25913;SDS011;13718;50.922;5.346;2022-07-26T03:57:10;11.15;;;2.72;;
25913;SDS011;13718;50.922;5.346;2022-07-26T03:59:35;13.68;;;2.40;;
25913;SDS011;13718;50.922;5.346;2022-07-26T04:02:01;11.55;;;2.10;;
25913;SDS011;13718;50.922;5.346;2022-07-26T04:04:27;16.77;;;2.13;;
25913;SDS011;13718;50.922;5.346;2022-07-26T04:06:53;12.77;;;2.30;;
25913;SDS011;13718;50.922;5.346;2022-07-26T04:09:20;11.32;;;2.20;;
25913;SDS011;13718;50.922;5.346;2022-07-26T04:11:46;11.23;;;2.20;;
25913;SDS011;13718;50.922;5.346;2022-07-26T04:14:12;17.10;;;2.60;;
25913;SDS011;13718;50.922;5.346;2022-07-26T04:16:38;14.25;;;2.47;;
25913;SDS011;13718;50.922;5.346;2022-07-26T04:19:03;10.25;;;2.40;;
25913;SDS011;13718;50.922;5.346;2022-07-26T04:21:29;11.65;;;2.17;;
25913;SDS011;13718;50.922;5.346;2022-07-26T04:23:55;11.70;;;2.22;;
25913;SDS011;13718;50.922;5.346;2022-07-26T04:26:21;10.05;;;2.42;;
25913;SDS011;13718;50.922;5.346;2022-07-26T04:28:46;15.65;;;2.67;;
25913;SDS011;13718;50.922;5.346;2022-07-26T04:31:12;17.05;;;2.40;;
25913;SDS011;13718;50.922;5.346;2022-07-26T04:33:38;9.43;;;2.17;;
25913;SDS011;13718;50.922;5.346;2022-07-26T04:36:04;13.45;;;3.00;;
25913;SDS011;13718;50.922;5.346;2022-07-26T04:38:30;15.13;;;2.85;;
25913;SDS011;13718;50.922;5.346;2022-07-26T04:40:56;13.50;;;2.33;;
25913;SDS011;13718;50.922;5.346;2022-07-26T04:43:22;11.18;;;2.30;;
25913;SDS011;13718;50.922;5.346;2022-07-26T04:45:48;12.30;;;2.53;;
25913;SDS011;13718;50.922;5.346;2022-07-26T04:48:14;13.50;;;2.88;;
25913;SDS011;13718;50.922;5.346;2022-07-26T04:50:41;12.75;;;2.63;;
25913;SDS011;13718;50.922;5.346;2022-07-26T04:53:07;15.40;;;2.78;;
25913;SDS011;13718;50.922;5.346;2022-07-26T04:55:35;11.20;;;2.40;;
25913;SDS011;13718;50.922;5.346;2022-07-26T04:58:02;12.75;;;2.95;;
25913;SDS011;13718;50.922;5.346;2022-07-26T05:00:28;15.27;;;3.00;;
25913;SDS011;13718;50.922;5.346;2022-07-26T05:02:54;11.00;;;2.50;;
25913;SDS011;13718;50.922;5.346;2022-07-26T05:05:22;8.55;;;2.22;;
25913;SDS011;13718;50.922;5.346;2022-07-26T05:07:49;13.20;;;2.45;;
25913;SDS011;13718;50.922;5.346;2022-07-26T05:10:19;14.48;;;3.22;;
25913;SDS011;13718;50.922;5.346;2022-07-26T05:12:46;20.92;;;2.88;;
25913;SDS011;13718;50.922;5.346;2022-07-26T05:15:13;15.65;;;2.40;;
25913;SDS011;13718;50.922;5.346;2022-07-26T05:17:40;11.93;;;2.50;;
25913;SDS011;13718;50.922;5.346;2022-07-26T05:20:07;16.25;;;2.65;;
25913;SDS011;13718;50.922;5.346;2022-07-26T05:22:34;14.13;;;2.88;;
25913;SDS011;13718;50.922;5.346;2022-07-26T05:25:00;14.07;;;2.60;;
25913;SDS011;13718;50.922;5.346;2022-07-26T05:27:27;15.57;;;2.53;;
25913;SDS011;13718;50.922;5.346;2022-07-26T05:29:53;15.57;;;2.88;;
25913;SDS011;13718;50.922;5.346;2022-07-26T05:32:19;15.68;;;2.90;;
25913;SDS011;13718;50.922;5.346;2022-07-26T05:34:45;16.70;;;2.90;;
25913;SDS011;13718;50.922;5.346;2022-07-26T05:37:11;13.73;;;3.03;;
25913;SDS011;13718;50.922;5.346;2022-07-26T05:39:37;17.95;;;3.33;;
25913;SDS011;13718;50.922;5.346;2022-07-26T05:42:02;12.38;;;2.70;;
25913;SDS011;13718;50.922;5.346;2022-07-26T05:44:28;19.13;;;3.28;;
25913;SDS011;13718;50.922;5.346;2022-07-26T05:46:53;10.80;;;2.75;;
25913;SDS011;13718;50.922;5.346;2022-07-26T05:49:19;17.33;;;3.13;;
25913;SDS011;13718;50.922;5.346;2022-07-26T05:51:45;16.63;;;2.97;;
25913;SDS011;13718;50.922;5.346;2022-07-26T05:54:10;12.80;;;2.72;;
25913;SDS011;13718;50.922;5.346;2022-07-26T05:56:36;16.15;;;3.25;;
25913;SDS011;13718;50.922;5.346;2022-07-26T05:59:02;18.25;;;3.10;;
25913;SDS011;13718;50.922;5.346;2022-07-26T06:01:27;13.77;;;3.10;;
25913;SDS011;13718;50.922;5.346;2022-07-26T06:03:56;13.93;;;3.65;;
25913;SDS011;13718;50.922;5.346;2022-07-26T06:06:24;19.60;;;3.60;;
25913;SDS011;13718;50.922;5.346;2022-07-26T06:08:50;19.88;;;3.47;;
25913;SDS011;13718;50.922;5.346;2022-07-26T06:11:16;18.95;;;3.35;;
25913;SDS011;13718;50.922;5.346;2022-07-26T06:13:41;15.25;;;3.65;;
25913;SDS011;13718;50.922;5.346;2022-07-26T06:16:07;16.30;;;3.92;;
25913;SDS011;13718;50.922;5.346;2022-07-26T06:18:33;18.15;;;3.90;;
25913;SDS011;13718;50.922;5.346;2022-07-26T06:20:58;18.23;;;3.50;;
25913;SDS011;13718;50.922;5.346;2022-07-26T06:23:24;15.75;;;3.58;;
25913;SDS011;13718;50.922;5.346;2022-07-26T06:25:49;11.85;;;3.42;;
25913;SDS011;13718;50.922;5.346;2022-07-26T06:28:15;15.73;;;3.50;;
25913;SDS011;13718;50.922;5.346;2022-07-26T06:30:42;16.95;;;3.95;;
25913;SDS011;13718;50.922;5.346;2022-07-26T06:33:09;13.32;;;3.60;;
25913;SDS011;13718;50.922;5.346;2022-07-26T06:35:35;19.52;;;3.42;;
25913;SDS011;13718;50.922;5.346;2022-07-26T06:38:03;13.00;;;3.85;;
25913;SDS011;13718;50.922;5.346;2022-07-26T06:40:30;16.13;;;4.03;;
25913;SDS011;13718;50.922;5.346;2022-07-26T06:42:57;19.90;;;4.18;;
25913;SDS011;13718;50.922;5.346;2022-07-26T06:45:23;14.90;;;3.78;;
25913;SDS011;13718;50.922;5.346;2022-07-26T06:47:48;11.50;;;3.67;;
25913;SDS011;13718;50.922;5.346;2022-07-26T06:50:14;19.60;;;3.58;;
25913;SDS011;13718;50.922;5.346;2022-07-26T06:52:40;17.10;;;3.97;;
25913;SDS011;13718;50.922;5.346;2022-07-26T06:55:05;19.55;;;3.45;;
25913;SDS011;13718;50.922;5.346;2022-07-26T06:57:33;12.77;;;3.78;;
25913;SDS011;13718;50.922;5.346;2022-07-26T06:59:59;14.02;;;3.20;;
25913;SDS011;13718;50.922;5.346;2022-07-26T07:02:24;13.80;;;3.15;;
25913;SDS011;13718;50.922;5.346;2022-07-26T07:04:50;17.73;;;3.47;;
25913;SDS011;13718;50.922;5.346;2022-07-26T07:07:16;16.40;;;3.53;;
25913;SDS011;13718;50.922;5.346;2022-07-26T07:09:41;14.05;;;3.85;;
25913;SDS011;13718;50.922;5.346;2022-07-26T07:12:07;12.20;;;3.60;;
25913;SDS011;13718;50.922;5.346;2022-07-26T07:14:33;11.70;;;3.28;;
25913;SDS011;13718;50.922;5.346;2022-07-26T07:16:58;12.43;;;3.20;;
25913;SDS011;13718;50.922;5.346;2022-07-26T07:19:42;17.27;;;3.08;;
25913;SDS011;13718;50.922;5.346;2022-07-26T07:22:07;15.32;;;3.92;;
25913;SDS011;13718;50.922;5.346;2022-07-26T07:24:35;14.88;;;3.58;;
25913;SDS011;13718;50.922;5.346;2022-07-26T07:27:01;20.85;;;3.70;;
25913;SDS011;13718;50.922;5.346;2022-07-26T07:29:27;11.75;;;3.08;;
25913;SDS011;13718;50.922;5.346;2022-07-26T07:31:52;12.35;;;3.15;;
25913;SDS011;13718;50.922;5.346;2022-07-26T07:34:18;17.02;;;3.75;;
25913;SDS011;13718;50.922;5.346;2022-07-26T07:36:46;9.90;;;3.78;;
25913;SDS011;13718;50.922;5.346;2022-07-26T07:39:13;12.02;;;3.55;;
25913;SDS011;13718;50.922;5.346;2022-07-26T07:41:38;15.25;;;3.10;;
25913;SDS011;13718;50.922;5.346;2022-07-26T07:44:04;13.13;;;3.15;;
25913;SDS011;13718;50.922;5.346;2022-07-26T07:46:30;10.20;;;3.17;;
25913;SDS011;13718;50.922;5.346;2022-07-26T07:48:56;9.15;;;2.38;;
25913;SDS011;13718;50.922;5.346;2022-07-26T07:51:23;15.30;;;3.33;;
25913;SDS011;13718;50.922;5.346;2022-07-26T07:53:50;15.80;;;4.00;;
25913;SDS011;13718;50.922;5.346;2022-07-26T07:56:15;12.07;;;3.42;;
25913;SDS011;13718;50.922;5.346;2022-07-26T07:58:41;13.18;;;3.33;;
25913;SDS011;13718;50.922;5.346;2022-07-26T08:01:07;13.02;;;2.78;;
25913;SDS011;13718;50.922;5.346;2022-07-26T08:03:33;8.05;;;1.88;;
25913;SDS011;13718;50.922;5.346;2022-07-26T08:05:59;9.23;;;2.33;;
25913;SDS011;13718;50.922;5.346;2022-07-26T08:08:26;8.90;;;2.47;;
25913;SDS011;13718;50.922;5.346;2022-07-26T08:10:52;10.05;;;2.67;;
25913;SDS011;13718;50.922;5.346;2022-07-26T08:13:18;7.97;;;1.90;;
25913;SDS011;13718;50.922;5.346;2022-07-26T08:15:48;13.32;;;2.33;;
25913;SDS011;13718;50.922;5.346;2022-07-26T08:18:14;8.02;;;2.50;;
25913;SDS011;13718;50.922;5.346;2022-07-26T08:20:40;17.70;;;2.95;;
25913;SDS011;13718;50.922;5.346;2022-07-26T08:23:05;11.77;;;2.33;;
25913;SDS011;13718;50.922;5.346;2022-07-26T08:25:31;12.15;;;2.25;;
25913;SDS011;13718;50.922;5.346;2022-07-26T08:27:57;12.48;;;2.40;;
25913;SDS011;13718;50.922;5.346;2022-07-26T08:30:22;8.30;;;2.40;;
25913;SDS011;13718;50.922;5.346;2022-07-26T08:32:48;10.98;;;2.13;;
25913;SDS011;13718;50.922;5.346;2022-07-26T08:35:13;10.82;;;3.10;;
25913;SDS011;13718;50.922;5.346;2022-07-26T08:37:39;11.40;;;2.75;;
25913;SDS011;13718;50.922;5.346;2022-07-26T08:40:05;9.68;;;2.78;;
25913;SDS011;13718;50.922;5.346;2022-07-26T08:42:31;8.60;;;2.35;;
25913;SDS011;13718;50.922;5.346;2022-07-26T08:44:56;8.27;;;2.50;;
25913;SDS011;13718;50.922;5.346;2022-07-26T08:47:23;13.48;;;2.90;;
25913;SDS011;13718;50.922;5.346;2022-07-26T08:49:48;10.60;;;2.40;;
25913;SDS011;13718;50.922;5.346;2022-07-26T08:52:14;14.73;;;2.33;;
25913;SDS011;13718;50.922;5.346;2022-07-26T08:54:47;8.90;;;1.98;;
25913;SDS011;13718;50.922;5.346;2022-07-26T08:57:15;14.98;;;2.65;;
25913;SDS011;13718;50.922;5.346;2022-07-26T08:59:41;10.15;;;2.38;;
25913;SDS011;13718;50.922;5.346;2022-07-26T09:02:09;7.93;;;2.30;;
25913;SDS011;13718;50.922;5.346;2022-07-26T09:07:13;8.68;;;2.40;;
25913;SDS011;13718;50.922;5.346;2022-07-26T09:09:59;12.05;;;2.38;;
25913;SDS011;13718;50.922;5.346;2022-07-26T09:12:30;9.10;;;2.28;;
25913;SDS011;13718;50.922;5.346;2022-07-26T09:14:57;11.27;;;2.30;;
25913;SDS011;13718;50.922;5.346;2022-07-26T09:17:24;11.75;;;2.88;;
25913;SDS011;13718;50.922;5.346;2022-07-26T09:20:05;10.35;;;2.40;;
25913;SDS011;13718;50.922;5.346;2022-07-26T09:22:31;7.90;;;2.63;;
25913;SDS011;13718;50.922;5.346;2022-07-26T09:24:57;6.93;;;2.28;;
25913;SDS011;13718;50.922;5.346;2022-07-26T09:27:23;10.43;;;2.58;;
25913;SDS011;13718;50.922;5.346;2022-07-26T09:29:52;11.48;;;2.75;;
25913;SDS011;13718;50.922;5.346;2022-07-26T09:32:23;13.40;;;2.72;;
25913;SDS011;13718;50.922;5.346;2022-07-26T09:34:51;14.73;;;2.63;;
25913;SDS011;13718;50.922;5.346;2022-07-26T09:37:36;7.63;;;2.55;;
25913;SDS011;13718;50.922;5.346;2022-07-26T09:40:05;9.27;;;2.47;;
25913;SDS011;13718;50.922;5.346;2022-07-26T09:42:32;6.28;;;2.72;;
25913;SDS011;13718;50.922;5.346;2022-07-26T09:44:59;10.55;;;3.50;;
25913;SDS011;13718;50.922;5.346;2022-07-26T09:47:35;10.40;;;3.90;;
25913;SDS011;13718;50.922;5.346;2022-07-26T09:50:12;12.40;;;4.25;;
25913;SDS011;13718;50.922;5.346;2022-07-26T09:52:40;9.40;;;3.42;;
25913;SDS011;13718;50.922;5.346;2022-07-26T09:55:27;8.05;;;3.38;;
25913;SDS011;13718;50.922;5.346;2022-07-26T09:57:54;10.70;;;3.33;;
25913;SDS011;13718;50.922;5.346;2022-07-26T10:00:19;13.43;;;3.65;;
25913;SDS011;13718;50.922;5.346;2022-07-26T10:02:45;14.52;;;2.80;;
25913;SDS011;13718;50.922;5.346;2022-07-26T10:05:11;7.32;;;2.65;;
25913;SDS011;13718;50.922;5.346;2022-07-26T10:07:37;10.18;;;2.22;;
25913;SDS011;13718;50.922;5.346;2022-07-26T10:10:04;8.73;;;1.98;;
25913;SDS011;13718;50.922;5.346;2022-07-26T10:12:33;8.20;;;2.00;;
25913;SDS011;13718;50.922;5.346;2022-07-26T10:14:59;7.35;;;2.20;;
25913;SDS011;13718;50.922;5.346;2022-07-26T10:19:51;9.88;;;2.20;;
25913;SDS011;13718;50.922;5.346;2022-07-26T10:22:23;11.43;;;2.28;;
25913;SDS011;13718;50.922;5.346;2022-07-26T10:24:51;5.68;;;1.73;;
25913;SDS011;13718;50.922;5.346;2022-07-26T10:35:39;8.15;;;1.90;;
25913;SDS011;13718;50.922;5.346;2022-07-26T10:38:06;9.63;;;1.83;;
25913;SDS011;13718;50.922;5.346;2022-07-26T10:40:34;5.68;;;1.67;;
25913;SDS011;13718;50.922;5.346;2022-07-26T10:45:34;8.07;;;2.00;;
25913;SDS011;13718;50.922;5.346;2022-07-26T10:48:17;5.93;;;1.60;;
25913;SDS011;13718;50.922;5.346;2022-07-26T10:50:51;5.43;;;1.50;;
25913;SDS011;13718;50.922;5.346;2022-07-26T10:55:44;7.80;;;1.40;;
25913;SDS011;13718;50.922;5.346;2022-07-26T10:58:40;4.70;;;1.20;;
25913;SDS011;13718;50.922;5.346;2022-07-26T11:01:07;7.93;;;1.37;;
25913;SDS011;13718;50.922;5.346;2022-07-26T11:03:40;8.57;;;1.40;;
25913;SDS011;13718;50.922;5.346;2022-07-26T11:06:16;7.63;;;1.10;;
25913;SDS011;13718;50.922;5.346;2022-07-26T11:08:43;6.28;;;1.20;;
25913;SDS011;13718;50.922;5.346;2022-07-26T11:11:10;6.28;;;1.17;;
25913;SDS011;13718;50.922;5.346;2022-07-26T11:13:36;5.80;;;1.10;;
25913;SDS011;13718;50.922;5.346;2022-07-26T11:16:03;4.60;;;0.90;;
25913;SDS011;13718;50.922;5.346;2022-07-26T11:18:31;7.85;;;1.10;;
25913;SDS011;13718;50.922;5.346;2022-07-26T11:23:41;4.38;;;1.00;;
25913;SDS011;13718;50.922;5.346;2022-07-26T11:26:09;5.20;;;0.90;;
25913;SDS011;13718;50.922;5.346;2022-07-26T11:28:46;5.22;;;1.10;;
25913;SDS011;13718;50.922;5.346;2022-07-26T11:31:17;7.82;;;1.30;;
25913;SDS011;13718;50.922;5.346;2022-07-26T11:33:45;4.38;;;1.05;;
25913;SDS011;13718;50.922;5.346;2022-07-26T11:36:14;5.25;;;1.17;;
25913;SDS011;13718;50.922;5.346;2022-07-26T11:41:21;7.97;;;1.92;;
25913;SDS011;13718;50.922;5.346;2022-07-26T11:43:48;6.93;;;1.20;;
25913;SDS011;13718;50.922;5.346;2022-07-26T11:46:15;5.72;;;1.50;;
25913;SDS011;13718;50.922;5.346;2022-07-26T11:48:59;10.13;;;1.50;;
25913;SDS011;13718;50.922;5.346;2022-07-26T11:51:25;3.80;;;0.98;;
25913;SDS011;13718;50.922;5.346;2022-07-26T11:53:51;4.35;;;1.50;;
25913;SDS011;13718;50.922;5.346;2022-07-26T11:56:23;5.45;;;1.10;;
25913;SDS011;13718;50.922;5.346;2022-07-26T11:58:53;2.08;;;1.00;;
25913;SDS011;13718;50.922;5.346;2022-07-26T12:01:21;4.32;;;1.20;;
25913;SDS011;13718;50.922;5.346;2022-07-26T12:03:49;3.28;;;1.08;;
25913;SDS011;13718;50.922;5.346;2022-07-26T12:06:22;4.10;;;1.00;;
25913;SDS011;13718;50.922;5.346;2022-07-26T12:08:51;5.28;;;1.30;;
25913;SDS011;13718;50.922;5.346;2022-07-26T12:11:20;3.30;;;0.90;;
25913;SDS011;13718;50.922;5.346;2022-07-26T12:13:47;4.90;;;1.00;;
25913;SDS011;13718;50.922;5.346;2022-07-26T12:16:58;6.75;;;1.08;;
25913;SDS011;13718;50.922;5.346;2022-07-26T12:19:09;4.20;;;1.60;;
25913;SDS011;13718;50.922;5.346;2022-07-26T12:21:58;6.53;;;2.00;;
25913;SDS011;13718;50.922;5.346;2022-07-26T12:27:08;4.45;;;2.30;;
25913;SDS011;13718;50.922;5.346;2022-07-26T12:29:39;6.07;;;2.15;;
25913;SDS011;13718;50.922;5.346;2022-07-26T12:32:11;5.10;;;2.08;;
25913;SDS011;13718;50.922;5.346;2022-07-26T12:37:09;6.50;;;2.50;;
25913;SDS011;13718;50.922;5.346;2022-07-26T12:39:39;6.82;;;2.67;;
25913;SDS011;13718;50.922;5.346;2022-07-26T12:45:13;8.43;;;2.80;;
25913;SDS011;13718;50.922;5.346;2022-07-26T12:47:39;5.03;;;2.17;;
25913;SDS011;13718;50.922;5.346;2022-07-26T12:50:07;8.13;;;2.90;;
25913;SDS011;13718;50.922;5.346;2022-07-26T12:52:34;7.68;;;2.80;;
25913;SDS011;13718;50.922;5.346;2022-07-26T12:55:00;7.25;;;2.38;;
25913;SDS011;13718;50.922;5.346;2022-07-26T12:57:28;6.50;;;2.55;;
25913;SDS011;13718;50.922;5.346;2022-07-26T12:59:54;5.25;;;2.17;;
25913;SDS011;13718;50.922;5.346;2022-07-26T13:02:20;5.05;;;1.83;;
25913;SDS011;13718;50.922;5.346;2022-07-26T13:04:46;5.68;;;2.75;;
25913;SDS011;13718;50.922;5.346;2022-07-26T13:07:13;7.55;;;2.30;;
25913;SDS011;13718;50.922;5.346;2022-07-26T13:09:39;6.68;;;2.45;;
25913;SDS011;13718;50.922;5.346;2022-07-26T13:12:05;6.25;;;2.33;;
25913;SDS011;13718;50.922;5.346;2022-07-26T13:14:32;4.53;;;2.03;;
25913;SDS011;13718;50.922;5.346;2022-07-26T13:16:59;3.00;;;1.92;;
25913;SDS011;13718;50.922;5.346;2022-07-26T13:19:25;3.88;;;2.35;;
25913;SDS011;13718;50.922;5.346;2022-07-26T13:21:52;5.22;;;1.98;;
25913;SDS011;13718;50.922;5.346;2022-07-26T13:24:17;6.82;;;2.50;;
25913;SDS011;13718;50.922;5.346;2022-07-26T13:26:43;7.72;;;2.30;;
25913;SDS011;13718;50.922;5.346;2022-07-26T13:29:08;4.10;;;2.30;;
25913;SDS011;13718;50.922;5.346;2022-07-26T13:31:34;3.03;;;1.80;;
25913;SDS011;13718;50.922;5.346;2022-07-26T13:34:00;7.10;;;1.65;;
25913;SDS011;13718;50.922;5.346;2022-07-26T13:36:26;4.90;;;1.60;;
25913;SDS011;13718;50.922;5.346;2022-07-26T13:38:51;3.95;;;1.23;;
25913;SDS011;13718;50.922;5.346;2022-07-26T13:41:17;1.60;;;0.95;;
25913;SDS011;13718;50.922;5.346;2022-07-26T13:43:42;0.95;;;0.70;;
25913;SDS011;13718;50.922;5.346;2022-07-26T13:46:08;2.70;;;0.60;;
25913;SDS011;13718;50.922;5.346;2022-07-26T13:48:34;1.40;;;0.57;;
25913;SDS011;13718;50.922;5.346;2022-07-26T13:50:59;1.08;;;0.50;;
25913;SDS011;13718;50.922;5.346;2022-07-26T13:53:25;1.48;;;0.70;;
25913;SDS011;13718;50.922;5.346;2022-07-26T13:55:50;2.80;;;0.60;;
25913;SDS011;13718;50.922;5.346;2022-07-26T13:58:16;7.15;;;1.02;;
25913;SDS011;13718;50.922;5.346;2022-07-26T14:00:45;1.88;;;0.60;;
25913;SDS011;13718;50.922;5.346;2022-07-26T14:03:12;3.20;;;0.50;;
25913;SDS011;13718;50.922;5.346;2022-07-26T14:05:38;2.17;;;0.70;;
25913;SDS011;13718;50.922;5.346;2022-07-26T14:08:04;2.60;;;0.82;;
25913;SDS011;13718;50.922;5.346;2022-07-26T14:10:30;4.05;;;1.42;;
25913;SDS011;13718;50.922;5.346;2022-07-26T14:12:56;4.00;;;1.00;;
25913;SDS011;13718;50.922;5.346;2022-07-26T14:15:22;2.88;;;1.00;;
25913;SDS011;13718;50.922;5.346;2022-07-26T14:17:48;1.52;;;0.80;;
25913;SDS011;13718;50.922;5.346;2022-07-26T14:20:16;2.20;;;0.85;;
25913;SDS011;13718;50.922;5.346;2022-07-26T14:22:42;1.10;;;0.88;;
25913;SDS011;13718;50.922;5.346;2022-07-26T14:25:08;2.08;;;1.00;;
25913;SDS011;13718;50.922;5.346;2022-07-26T14:27:34;1.48;;;0.98;;
25913;SDS011;13718;50.922;5.346;2022-07-26T14:30:00;2.55;;;0.65;;
25913;SDS011;13718;50.922;5.346;2022-07-26T14:32:25;1.75;;;0.85;;
25913;SDS011;13718;50.922;5.346;2022-07-26T14:34:51;2.80;;;0.90;;
25913;SDS011;13718;50.922;5.346;2022-07-26T14:37:17;1.25;;;0.90;;
25913;SDS011;13718;50.922;5.346;2022-07-26T14:39:42;0.98;;;0.80;;
25913;SDS011;13718;50.922;5.346;2022-07-26T14:42:08;2.75;;;1.13;;
25913;SDS011;13718;50.922;5.346;2022-07-26T14:44:33;1.80;;;0.95;;
25913;SDS011;13718;50.922;5.346;2022-07-26T14:46:59;1.23;;;0.68;;
25913;SDS011;13718;50.922;5.346;2022-07-26T14:49:25;1.48;;;0.70;;
25913;SDS011;13718;50.922;5.346;2022-07-26T14:51:50;3.50;;;0.65;;
25913;SDS011;13718;50.922;5.346;2022-07-26T14:54:19;1.80;;;0.60;;
25913;SDS011;13718;50.922;5.346;2022-07-26T14:56:45;1.23;;;0.57;;
25913;SDS011;13718;50.922;5.346;2022-07-26T14:59:12;0.95;;;0.55;;
25913;SDS011;13718;50.922;5.346;2022-07-26T15:01:37;1.45;;;0.80;;
25913;SDS011;13718;50.922;5.346;2022-07-26T15:04:03;1.73;;;0.77;;
25913;SDS011;13718;50.922;5.346;2022-07-26T15:06:29;2.78;;;1.10;;
25913;SDS011;13718;50.922;5.346;2022-07-26T15:08:54;1.27;;;0.80;;
25913;SDS011;13718;50.922;5.346;2022-07-26T15:11:20;4.20;;;0.80;;
25913;SDS011;13718;50.922;5.346;2022-07-26T15:13:45;1.33;;;0.70;;
25913;SDS011;13718;50.922;5.346;2022-07-26T15:16:11;0.60;;;0.50;;
25913;SDS011;13718;50.922;5.346;2022-07-26T15:18:36;1.33;;;0.60;;
25913;SDS011;13718;50.922;5.346;2022-07-26T15:21:02;2.95;;;0.70;;
25913;SDS011;13718;50.922;5.346;2022-07-26T15:23:28;4.22;;;0.75;;
25913;SDS011;13718;50.922;5.346;2022-07-26T15:25:53;3.00;;;0.50;;